fecha-hora | temperatura | viento dirección-velocidad-rachas | humedad | presión

  • 08-07-2020 09:00:00 | 17.70°C | Este-14.00 km/h - 24.00 km/h | 99.00% | 1002.40 hPa
  • 08-07-2020 07:00:00 | 17.50°C | Este-12.00 km/h - 28.00 km/h | 100.00% | 1001.90 hPa
  • 08-07-2020 06:00:00 | 17.50°C | Este-12.00 km/h - 30.00 km/h | 99.00% | 1002.00 hPa
  • 08-07-2020 05:00:00 | 17.60°C | Este-18.00 km/h - 32.00 km/h | 94.00% | 1002.10 hPa
  • 08-07-2020 04:00:00 | 17.80°C | Este-19.00 km/h - 37.00 km/h | 91.00% | 1002.40 hPa
  • 08-07-2020 03:00:00 | 17.90°C | Este-21.00 km/h - 39.00 km/h | 87.00% | 1002.80 hPa
  • 08-07-2020 02:00:00 | 18.00°C | Este-20.00 km/h - 41.00 km/h | 85.00% | 1003.00 hPa
  • 08-07-2020 01:00:00 | 18.20°C | Este-24.00 km/h - 37.00 km/h | 87.00% | 1003.20 hPa
  • 08-07-2020 00:00:00 | 18.30°C | Este-22.00 km/h - 35.00 km/h | 87.00% | 1003.40 hPa
  • 07-07-2020 23:00:00 | 18.10°C | Este-20.00 km/h - 37.00 km/h | 94.00% | 1003.40 hPa
  • 07-07-2020 22:00:00 | 18.10°C | Este-22.00 km/h - 45.00 km/h | 92.00% | 1003.10 hPa
  • 07-07-2020 21:00:00 | 19.10°C | Este-21.00 km/h - 37.00 km/h | 83.00% | 1002.90 hPa
  • 07-07-2020 20:00:00 | 19.70°C | Este-19.00 km/h - 39.00 km/h | 77.00% | 1003.00 hPa
  • 07-07-2020 19:00:00 | 19.80°C | Este-22.00 km/h - 42.00 km/h | 73.00% | 1003.10 hPa
  • 07-07-2020 18:00:00 | 20.40°C | Este-21.00 km/h - 39.00 km/h | 68.00% | 1003.60 hPa
  • 07-07-2020 17:00:00 | 20.20°C | Este-23.00 km/h - 37.00 km/h | 67.00% | 1004.00 hPa
  • 07-07-2020 16:00:00 | 20.20°C | Este-23.00 km/h - 37.00 km/h | 65.00% | 1004.40 hPa
  • 07-07-2020 14:00:00 | 20.10°C | Este-22.00 km/h - 41.00 km/h | 64.00% | 1004.80 hPa
  • 07-07-2020 14:00:00 | 20.10°C | Este-22.00 km/h - 41.00 km/h | 64.00% | 1004.80 hPa
  • 07-07-2020 13:00:00 | 19.60°C | Este-23.00 km/h - 39.00 km/h | 64.00% | 1004.80 hPa
  • 07-07-2020 12:00:00 | 19.30°C | Este-18.00 km/h - 35.00 km/h | 65.00% | 1005.00 hPa
  • 07-07-2020 11:00:00 | 18.90°C | Este-17.00 km/h - 37.00 km/h | 65.00% | 1005.20 hPa
  • 07-07-2020 10:00:00 | 18.00°C | Este-23.00 km/h - 35.00 km/h | 69.00% | 1005.50 hPa
  • 07-07-2020 09:00:00 | 17.10°C | Este-18.00 km/h - 28.00 km/h | 77.00% | 1005.50 hPa
    • diseño web asturias Información sobre el estado de las mareas, altura de la marejada, temperatura del agua y otros datos de Gijón en Asturias.

      Surf Gijón